Terminal Aerodrome Forecast
Issued by NWS

Home | Current Version | Previous Version | Text Only | Print | Product List | Glossary On
Versions: 1 2 3 4 5 6 7 8 9 10 11 12
535
FTUS44 KLIX 240520
TAFGPT
TAF
KGPT 240520Z 2406/2506 09008KT P6SM SKC
     FM241300 08006KT P6SM SCT030
     FM241600 11011KT P6SM VCSH SCT040
      TEMPO 2417/2421 VRB10KT TS BKN040CB
     FM242300 08006KT P6SM SCT040=

USA.gov is the U.S. government's official web portal to all federal, state and local government web resources and services.